Time;durP1;ratioP1;P1;durP2;ratioP2;P2;SDS_P1;SDS_P2;PMS_P1;PMS_P2;Temp;Humidity;BMP_temperature;BMP_pressure;BME280_temperature;BME280_humidity;BME280_pressure;Samples;Min_cycle;Max_cycle;Signal;HPM_P1;HPM_P2
2021/06/21 00:00:55;;;;;;;5.03;4.63;;;;;;;;;;5073159;28;20082;-62
2021/06/21 00:03:20;;;;;;;5.30;4.85;;;;;;;;;;5072470;28;20008;-62
2021/06/21 00:05:46;;;;;;;6.20;4.60;;;;;;;;;;5072939;28;20410;-63
2021/06/21 00:08:12;;;;;;;4.65;4.32;;;;;;;;;;5072913;28;20024;-63
2021/06/21 00:10:37;;;;;;;4.65;4.35;;;;;;;;;;5072918;28;20111;-63
2021/06/21 00:13:03;;;;;;;4.85;4.35;;;;;;;;;;5072917;28;20024;-63
2021/06/21 00:15:30;;;;;;;8.77;5.30;;;;;;;;;;5072964;28;20070;-62
2021/06/21 00:17:56;;;;;;;5.32;4.32;;;;;;;;;;5072816;28;20011;-62
2021/06/21 00:20:22;;;;;;;4.47;4.18;;;;;;;;;;5071651;28;20433;-63
2021/06/21 00:22:48;;;;;;;5.15;4.68;;;;;;;;;;5073012;28;20379;-63
2021/06/21 00:25:14;;;;;;;5.35;4.32;;;;;;;;;;5071875;28;20480;-63
2021/06/21 00:27:40;;;;;;;5.20;4.80;;;;;;;;;;5072861;28;20103;-63
2021/06/21 00:30:07;;;;;;;5.78;4.35;;;;;;;;;;5072626;28;20028;-63
2021/06/21 00:32:33;;;;;;;6.75;4.68;;;;;;;;;;5071788;28;20478;-64
2021/06/21 00:34:58;;;;;;;5.22;4.53;;;;;;;;;;5072857;28;20020;-64
2021/06/21 00:37:24;;;;;;;6.10;4.63;;;;;;;;;;5073023;28;20016;-64
2021/06/21 00:39:49;;;;;;;6.00;4.20;;;;;;;;;;5072822;28;20138;-64
2021/06/21 00:42:14;;;;;;;5.38;4.43;;;;;;;;;;5072598;28;20016;-63
2021/06/21 00:44:40;;;;;;;4.88;4.32;;;;;;;;;;5071220;28;20474;-63
2021/06/21 00:47:05;;;;;;;5.00;4.60;;;;;;;;;;5072299;28;20024;-64
2021/06/21 00:49:31;;;;;;;4.65;4.25;;;;;;;;;;5072476;28;20039;-63
2021/06/21 00:51:57;;;;;;;8.35;4.93;;;;;;;;;;5072591;28;20024;-63
2021/06/21 00:54:23;;;;;;;6.35;4.22;;;;;;;;;;5072591;28;20024;-63
2021/06/21 00:56:49;;;;;;;4.95;4.18;;;;;;;;;;5071520;28;20012;-63
2021/06/21 00:59:15;;;;;;;4.93;4.45;;;;;;;;;;5072479;28;20040;-63
2021/06/21 01:01:40;;;;;;;8.90;4.60;;;;;;;;;;5072502;28;20510;-64
2021/06/21 01:04:06;;;;;;;6.20;4.57;;;;;;;;;;5072099;28;20028;-64
2021/06/21 01:06:31;;;;;;;5.90;4.90;;;;;;;;;;5072819;28;20031;-63
2021/06/21 01:08:57;;;;;;;4.60;4.20;;;;;;;;;;5072458;28;20032;-63
2021/06/21 01:11:29;;;;;;;4.68;4.25;;;;;;;;;;5072420;28;20013;-64
2021/06/21 01:14:17;;;;;;;6.20;4.00;;;;;;;;;;5072428;28;20017;-63
2021/06/21 01:16:45;;;;;;;4.65;4.25;;;;;;;;;;5043911;28;20036;-63
2021/06/21 01:19:11;;;;;;;4.80;4.30;;;;;;;;;;5076092;28;20008;-63
2021/06/21 01:21:42;;;;;;;8.85;4.35;;;;;;;;;;5075915;28;20496;-63
2021/06/21 01:24:20;;;;;;;6.88;3.90;;;;;;;;;;5073836;28;20405;-63
2021/06/21 01:26:48;;;;;;;6.85;4.13;;;;;;;;;;5073231;28;20451;-63
2021/06/21 01:29:19;;;;;;;4.60;4.20;;;;;;;;;;5074699;28;20021;-64
2021/06/21 01:31:48;;;;;;;5.40;4.43;;;;;;;;;;5076035;28;20017;-65
2021/06/21 01:34:14;;;;;;;7.78;4.30;;;;;;;;;;5076059;28;20069;-63
2021/06/21 01:36:40;;;;;;;5.70;4.50;;;;;;;;;;5075789;28;20047;-65
2021/06/21 01:39:06;;;;;;;5.47;4.25;;;;;;;;;;5072899;28;20024;-65
2021/06/21 01:41:35;;;;;;;4.20;3.90;;;;;;;;;;5075496;28;20044;-64
2021/06/21 01:44:01;;;;;;;5.03;4.35;;;;;;;;;;5075678;28;20471;-63
2021/06/21 01:46:31;;;;;;;4.78;4.10;;;;;;;;;;5075500;28;20356;-63
2021/06/21 01:48:58;;;;;;;4.90;4.32;;;;;;;;;;5075310;28;20017;-64
2021/06/21 01:51:24;;;;;;;7.18;4.28;;;;;;;;;;5074108;28;20028;-64
2021/06/21 01:53:52;;;;;;;4.45;4.13;;;;;;;;;;5074117;28;20083;-64
2021/06/21 01:56:20;;;;;;;5.25;4.53;;;;;;;;;;5074163;28;20028;-65
2021/06/21 01:58:47;;;;;;;4.57;4.18;;;;;;;;;;5072511;28;20486;-65
2021/06/21 02:01:17;;;;;;;8.05;4.40;;;;;;;;;;5073839;28;20025;-65
2021/06/21 02:03:50;;;;;;;5.18;4.28;;;;;;;;;;5074765;28;20104;-64
2021/06/21 02:06:17;;;;;;;5.00;4.13;;;;;;;;;;5074346;28;20029;-65
2021/06/21 02:08:44;;;;;;;4.63;4.30;;;;;;;;;;5073917;28;20494;-63
2021/06/21 02:11:10;;;;;;;4.50;4.10;;;;;;;;;;5075028;28;20091;-63
2021/06/21 02:13:37;;;;;;;6.78;3.97;;;;;;;;;;5075041;28;20106;-65
2021/06/21 02:16:03;;;;;;;4.60;4.05;;;;;;;;;;5074998;28;20044;-63
2021/06/21 02:18:29;;;;;;;5.30;4.47;;;;;;;;;;5074925;28;20031;-63
2021/06/21 02:20:54;;;;;;;5.07;4.18;;;;;;;;;;5075189;28;20037;-64
2021/06/21 02:23:21;;;;;;;6.22;3.72;;;;;;;;;;5074878;28;20467;-64
2021/06/21 02:25:47;;;;;;;4.60;4.20;;;;;;;;;;5069283;28;20036;-64
2021/06/21 02:28:13;;;;;;;4.22;3.90;;;;;;;;;;5074936;28;20454;-64
2021/06/21 02:30:40;;;;;;;7.57;4.82;;;;;;;;;;5074721;28;20024;-64
2021/06/21 02:33:06;;;;;;;4.55;4.15;;;;;;;;;;5072204;28;20013;-64
2021/06/21 02:35:32;;;;;;;4.38;4.07;;;;;;;;;;5074605;28;20043;-64
2021/06/21 02:37:58;;;;;;;4.72;4.32;;;;;;;;;;5074525;28;20047;-63
2021/06/21 02:40:25;;;;;;;4.55;4.15;;;;;;;;;;5073361;28;20060;-63
2021/06/21 02:42:50;;;;;;;4.47;4.10;;;;;;;;;;5074604;28;20012;-64
2021/06/21 02:45:16;;;;;;;4.22;3.80;;;;;;;;;;5074249;28;20025;-63
2021/06/21 02:47:42;;;;;;;5.25;4.75;;;;;;;;;;5074466;28;20073;-63
2021/06/21 02:50:08;;;;;;;5.55;3.97;;;;;;;;;;5074249;28;20028;-63
2021/06/21 02:52:46;;;;;;;4.07;3.58;;;;;;;;;;5074237;28;20013;-63
2021/06/21 02:55:14;;;;;;;5.32;3.90;;;;;;;;;;5072458;28;20028;-63
2021/06/21 02:57:46;;;;;;;4.18;3.80;;;;;;;;;;5074524;28;20020;-63
2021/06/21 03:00:11;;;;;;;4.38;3.78;;;;;;;;;;5070971;28;20183;-63
2021/06/21 03:02:39;;;;;;;3.90;3.60;;;;;;;;;;5073911;28;20111;-64
2021/06/21 03:05:05;;;;;;;5.00;4.68;;;;;;;;;;5073493;28;20493;-64
2021/06/21 03:07:31;;;;;;;5.28;4.65;;;;;;;;;;5073910;28;20028;-64
2021/06/21 03:09:58;;;;;;;5.03;4.22;;;;;;;;;;5073695;28;20115;-64
2021/06/21 03:12:27;;;;;;;5.22;4.78;;;;;;;;;;5073741;28;20013;-63
2021/06/21 03:14:53;;;;;;;4.73;4.27;;;;;;;;;;5073911;28;20016;-63
2021/06/21 03:17:19;;;;;;;5.22;4.65;;;;;;;;;;5072481;28;20251;-63
2021/06/21 03:19:45;;;;;;;5.55;4.78;;;;;;;;;;5073640;28;20060;-63
2021/06/21 03:22:11;;;;;;;7.68;5.22;;;;;;;;;;5072796;28;20020;-61
2021/06/21 03:24:37;;;;;;;4.80;4.50;;;;;;;;;;5072310;28;20490;-61
2021/06/21 03:27:03;;;;;;;4.97;4.28;;;;;;;;;;5073516;28;20081;-61
2021/06/21 03:29:28;;;;;;;6.82;4.57;;;;;;;;;;5073333;28;20389;-62
2021/06/21 03:31:54;;;;;;;6.65;4.88;;;;;;;;;;5073636;28;20029;-61
2021/06/21 03:34:24;;;;;;;8.18;4.43;;;;;;;;;;5073485;28;20024;-61
2021/06/21 03:36:51;;;;;;;5.65;5.07;;;;;;;;;;5072558;28;20028;-61
2021/06/21 03:39:16;;;;;;;6.40;4.80;;;;;;;;;;5073277;28;20085;-61
2021/06/21 03:41:44;;;;;;;5.05;4.18;;;;;;;;;;5073348;28;20020;-61
2021/06/21 03:44:10;;;;;;;4.97;4.50;;;;;;;;;;5055580;28;20437;-61
2021/06/21 03:46:36;;;;;;;4.78;4.40;;;;;;;;;;5073112;28;20095;-61
2021/06/21 03:49:02;;;;;;;5.25;4.32;;;;;;;;;;5073414;28;20038;-61
2021/06/21 03:51:27;;;;;;;5.10;4.70;;;;;;;;;;5073710;28;20025;-61
2021/06/21 03:53:53;;;;;;;5.10;4.40;;;;;;;;;;5073670;28;20021;-61
2021/06/21 03:56:18;;;;;;;7.13;4.68;;;;;;;;;;5073685;28;20016;-61
2021/06/21 03:58:47;;;;;;;5.72;4.35;;;;;;;;;;5073654;28;20020;-61
2021/06/21 04:01:12;;;;;;;7.95;4.50;;;;;;;;;;5073760;28;20024;-61
2021/06/21 04:03:38;;;;;;;5.38;4.13;;;;;;;;;;5073393;28;20089;-61
2021/06/21 04:06:04;;;;;;;5.47;4.55;;;;;;;;;;5073582;28;20028;-61
2021/06/21 04:08:29;;;;;;;4.65;4.18;;;;;;;;;;5073657;28;20032;-61
2021/06/21 04:10:55;;;;;;;6.70;4.47;;;;;;;;;;5073205;28;20028;-61
2021/06/21 04:13:20;;;;;;;5.57;4.35;;;;;;;;;;5073309;28;20074;-61
2021/06/21 04:15:46;;;;;;;7.45;4.20;;;;;;;;;;5073533;28;20378;-62
2021/06/21 04:18:13;;;;;;;4.78;4.25;;;;;;;;;;5073640;28;20029;-62
2021/06/21 04:20:39;;;;;;;5.45;4.63;;;;;;;;;;5073312;28;20097;-62
2021/06/21 04:23:05;;;;;;;5.22;4.35;;;;;;;;;;5073585;28;20021;-62
2021/06/21 04:25:31;;;;;;;6.40;4.20;;;;;;;;;;5073567;28;20454;-62
2021/06/21 04:27:56;;;;;;;6.25;4.47;;;;;;;;;;5072913;28;20033;-62
2021/06/21 04:30:23;;;;;;;5.00;4.20;;;;;;;;;;5073349;28;20025;-62
2021/06/21 04:32:49;;;;;;;6.25;4.38;;;;;;;;;;5073054;28;20025;-62
2021/06/21 04:35:16;;;;;;;4.88;4.28;;;;;;;;;;5073315;28;20066;-62
2021/06/21 04:37:42;;;;;;;7.38;4.75;;;;;;;;;;5055331;28;20025;-62
2021/06/21 04:40:09;;;;;;;5.43;4.53;;;;;;;;;;5073236;28;20111;-62
2021/06/21 04:42:34;;;;;;;5.30;4.80;;;;;;;;;;5073302;28;20111;-62
2021/06/21 04:45:01;;;;;;;7.10;4.68;;;;;;;;;;5073076;28;20501;-62
2021/06/21 04:47:27;;;;;;;5.57;4.70;;;;;;;;;;5073183;28;20036;-62
2021/06/21 04:49:56;;;;;;;71.32;8.63;;;;;;;;;;5076332;28;20477;-62
2021/06/21 04:52:28;;;;;;;5.05;4.13;;;;;;;;;;5076028;28;20107;-62
2021/06/21 04:55:00;;;;;;;6.03;4.32;;;;;;;;;;5076997;28;20075;-62
2021/06/21 04:57:26;;;;;;;6.80;4.75;;;;;;;;;;5076789;28;20052;-62
2021/06/21 04:59:52;;;;;;;7.88;4.35;;;;;;;;;;5077040;28;20017;-62
2021/06/21 05:02:17;;;;;;;8.60;4.10;;;;;;;;;;5076737;28;20025;-62
2021/06/21 05:04:43;;;;;;;6.68;4.15;;;;;;;;;;5076406;28;20126;-61
2021/06/21 05:07:09;;;;;;;7.65;4.35;;;;;;;;;;5076680;28;20028;-62
2021/06/21 05:09:34;;;;;;;8.82;4.15;;;;;;;;;;5076445;28;20032;-61
2021/06/21 05:12:01;;;;;;;8.73;4.45;;;;;;;;;;5076642;28;20055;-62
2021/06/21 05:14:26;;;;;;;7.88;4.38;;;;;;;;;;5076479;28;20048;-62
2021/06/21 05:16:52;;;;;;;8.95;4.38;;;;;;;;;;5076617;28;20410;-62
2021/06/21 05:19:17;;;;;;;6.60;4.43;;;;;;;;;;5075080;28;20115;-62
2021/06/21 05:21:43;;;;;;;7.65;4.18;;;;;;;;;;5076588;28;20063;-62
2021/06/21 05:24:08;;;;;;;5.10;3.85;;;;;;;;;;5075979;28;20025;-62
2021/06/21 05:26:34;;;;;;;6.20;3.83;;;;;;;;;;5076427;28;20036;-61
2021/06/21 05:28:59;;;;;;;9.32;4.20;;;;;;;;;;5076248;28;20016;-61
2021/06/21 05:31:25;;;;;;;9.18;4.20;;;;;;;;;;5076526;28;20082;-61
2021/06/21 05:33:50;;;;;;;6.75;3.70;;;;;;;;;;5076265;28;20112;-62
2021/06/21 05:36:16;;;;;;;7.60;3.70;;;;;;;;;;5076212;28;20039;-62
2021/06/21 05:38:42;;;;;;;4.82;3.30;;;;;;;;;;5076373;28;20025;-62
2021/06/21 05:41:07;;;;;;;9.43;3.63;;;;;;;;;;5076030;28;20032;-62
2021/06/21 05:43:32;;;;;;;10.98;4.10;;;;;;;;;;5076112;28;20024;-62
2021/06/21 05:45:58;;;;;;;6.40;3.83;;;;;;;;;;5074566;28;20028;-61
2021/06/21 05:48:24;;;;;;;6.82;3.72;;;;;;;;;;5075998;28;20016;-62
2021/06/21 05:50:50;;;;;;;5.43;3.47;;;;;;;;;;5075996;28;20024;-61
2021/06/21 05:53:16;;;;;;;11.88;3.58;;;;;;;;;;5075874;28;20020;-61
2021/06/21 05:55:42;;;;;;;5.32;3.03;;;;;;;;;;5076058;28;20021;-68
2021/06/21 05:58:07;;;;;;;8.63;3.45;;;;;;;;;;5076009;28;20027;-61
2021/06/21 06:00:33;;;;;;;8.20;3.47;;;;;;;;;;5074913;28;20059;-61
2021/06/21 06:02:58;;;;;;;7.05;4.05;;;;;;;;;;5075575;28;20385;-61
2021/06/21 06:05:25;;;;;;;9.32;3.67;;;;;;;;;;5075540;28;20098;-61
2021/06/21 06:07:50;;;;;;;9.30;3.70;;;;;;;;;;5075655;28;20403;-62
2021/06/21 06:10:16;;;;;;;10.13;3.38;;;;;;;;;;5075544;28;20098;-62
2021/06/21 06:12:42;;;;;;;6.07;3.58;;;;;;;;;;5075402;28;20051;-64
2021/06/21 06:15:09;;;;;;;11.05;3.70;;;;;;;;;;5075549;28;20032;-64
2021/06/21 06:17:34;;;;;;;7.82;3.78;;;;;;;;;;5075605;28;20016;-62
2021/06/21 06:20:00;;;;;;;9.35;3.40;;;;;;;;;;5075411;28;20395;-62
2021/06/21 06:22:25;;;;;;;6.05;3.65;;;;;;;;;;5075496;28;20025;-62
2021/06/21 06:24:51;;;;;;;12.55;3.60;;;;;;;;;;5075286;28;20079;-62
2021/06/21 06:27:16;;;;;;;7.13;3.50;;;;;;;;;;5075337;28;20116;-62
2021/06/21 06:29:42;;;;;;;9.20;3.22;;;;;;;;;;5075073;28;20029;-62
2021/06/21 06:32:07;;;;;;;6.88;3.30;;;;;;;;;;5075159;28;20386;-62
2021/06/21 06:34:34;;;;;;;6.50;3.47;;;;;;;;;;5075040;28;20062;-62
2021/06/21 06:36:59;;;;;;;8.93;3.40;;;;;;;;;;5075161;28;20450;-62
2021/06/21 06:39:25;;;;;;;8.00;3.65;;;;;;;;;;5074804;28;20036;-62
2021/06/21 06:41:51;;;;;;;10.15;4.10;;;;;;;;;;5074928;28;20486;-61
2021/06/21 06:44:16;;;;;;;8.18;3.50;;;;;;;;;;5073605;28;20062;-62
2021/06/21 06:46:42;;;;;;;7.85;3.25;;;;;;;;;;5072072;28;20030;-62
2021/06/21 06:49:08;;;;;;;5.10;2.92;;;;;;;;;;5073458;28;20028;-61
2021/06/21 06:51:44;;;;;;;8.07;3.38;;;;;;;;;;5073670;28;20383;-61
2021/06/21 06:59:30;;;;;;;10.25;3.38;;;;;;;;;;5074328;28;20032;-61
2021/06/21 07:01:56;;;;;;;7.65;3.97;;;;;;;;;;5074107;28;20048;-61
2021/06/21 07:04:21;;;;;;;6.72;2.75;;;;;;;;;;5073698;28;20052;-61
2021/06/21 07:06:47;;;;;;;4.90;2.65;;;;;;;;;;5074166;28;20028;-61
2021/06/21 07:09:12;;;;;;;8.60;2.83;;;;;;;;;;5073957;28;20425;-61
2021/06/21 07:11:38;;;;;;;11.30;3.05;;;;;;;;;;5071765;28;20024;-62
2021/06/21 07:14:04;;;;;;;5.80;2.90;;;;;;;;;;5073716;28;20024;-62
2021/06/21 07:16:29;;;;;;;4.43;3.10;;;;;;;;;;5073957;28;20490;-61
2021/06/21 07:18:55;;;;;;;10.88;2.95;;;;;;;;;;5073881;28;20108;-61
2021/06/21 07:21:20;;;;;;;4.65;2.97;;;;;;;;;;5073927;28;20467;-62
2021/06/21 07:23:46;;;;;;;10.30;2.78;;;;;;;;;;5072584;28;20441;-62
2021/06/21 07:26:11;;;;;;;11.30;2.75;;;;;;;;;;5073755;28;20031;-61
2021/06/21 07:28:37;;;;;;;6.80;2.92;;;;;;;;;;5073694;28;20029;-61
2021/06/21 07:31:02;;;;;;;5.38;2.95;;;;;;;;;;5073394;28;20098;-61
2021/06/21 07:33:28;;;;;;;6.63;2.90;;;;;;;;;;5073697;28;20032;-61
2021/06/21 07:35:53;;;;;;;6.75;2.90;;;;;;;;;;5073384;28;20041;-62
2021/06/21 07:38:19;;;;;;;6.85;2.95;;;;;;;;;;5073547;28;20108;-61
2021/06/21 07:40:45;;;;;;;7.93;3.08;;;;;;;;;;5073573;28;20024;-61
2021/06/21 07:43:10;;;;;;;4.30;2.67;;;;;;;;;;5072309;28;20032;-62
2021/06/21 07:45:36;;;;;;;10.60;2.80;;;;;;;;;;5073384;28;20052;-62
2021/06/21 07:48:02;;;;;;;4.60;2.78;;;;;;;;;;5073316;28;20024;-62
2021/06/21 07:50:28;;;;;;;6.03;3.00;;;;;;;;;;5073265;28;20108;-62
2021/06/21 07:52:54;;;;;;;4.80;2.50;;;;;;;;;;5073428;28;20070;-62
2021/06/21 07:55:24;;;;;;;5.40;2.85;;;;;;;;;;5073370;28;20050;-61
2021/06/21 07:57:49;;;;;;;7.65;4.28;;;;;;;;;;5073310;28;20112;-61
2021/06/21 08:00:18;;;;;;;9.10;6.38;;;;;;;;;;5073156;28;20043;-61
2021/06/21 08:02:43;;;;;;;12.73;5.43;;;;;;;;;;5073385;28;20040;-62
2021/06/21 08:05:09;;;;;;;12.98;6.25;;;;;;;;;;5072828;28;20062;-62
2021/06/21 08:07:34;;;;;;;5.47;2.90;;;;;;;;;;5073235;28;20040;-61
2021/06/21 08:10:00;;;;;;;13.55;4.88;;;;;;;;;;5073172;28;20445;-61
2021/06/21 08:12:25;;;;;;;6.20;3.00;;;;;;;;;;5073159;28;20025;-61
2021/06/21 08:14:50;;;;;;;10.90;3.55;;;;;;;;;;5073031;28;20383;-61
2021/06/21 08:17:16;;;;;;;9.38;2.60;;;;;;;;;;5073068;28;20028;-61
2021/06/21 08:19:41;;;;;;;9.02;3.13;;;;;;;;;;5073124;28;20107;-62
2021/06/21 08:22:07;;;;;;;7.28;2.50;;;;;;;;;;5071837;28;20509;-61
2021/06/21 08:24:32;;;;;;;2.53;2.33;;;;;;;;;;5072509;28;20024;-61
2021/06/21 08:27:02;;;;;;;8.23;2.92;;;;;;;;;;5073093;28;20417;-61
2021/06/21 08:29:28;;;;;;;4.32;3.50;;;;;;;;;;5073071;28;20482;-62
2021/06/21 08:31:53;;;;;;;7.18;2.78;;;;;;;;;;5073340;28;20016;-62
2021/06/21 08:34:19;;;;;;;7.60;2.80;;;;;;;;;;5073305;28;20027;-62
2021/06/21 08:36:44;;;;;;;13.45;6.38;;;;;;;;;;5073306;28;20447;-61
2021/06/21 08:39:10;;;;;;;7.97;2.60;;;;;;;;;;5073032;28;20029;-61
2021/06/21 08:41:38;;;;;;;12.00;3.40;;;;;;;;;;5073476;28;20013;-61
2021/06/21 08:44:04;;;;;;;5.15;2.40;;;;;;;;;;5072034;28;20028;-61
2021/06/21 08:46:30;;;;;;;4.30;2.38;;;;;;;;;;5072939;28;20017;-61
2021/06/21 08:48:57;;;;;;;14.40;5.22;;;;;;;;;;5072871;28;20029;-61
2021/06/21 08:51:22;;;;;;;5.90;2.80;;;;;;;;;;5072859;28;20012;-61
2021/06/21 08:53:48;;;;;;;19.00;6.53;;;;;;;;;;5073141;28;20024;-61
2021/06/21 08:56:14;;;;;;;9.43;4.05;;;;;;;;;;5072804;28;20013;-61
2021/06/21 08:58:39;;;;;;;7.00;2.92;;;;;;;;;;5072875;28;20052;-61
2021/06/21 09:01:05;;;;;;;5.10;2.70;;;;;;;;;;5072465;28;20438;-61
2021/06/21 09:03:31;;;;;;;21.42;8.73;;;;;;;;;;5072657;28;20379;-61
2021/06/21 09:05:57;;;;;;;7.55;3.53;;;;;;;;;;5072946;28;20499;-61
2021/06/21 09:08:23;;;;;;;4.68;2.45;;;;;;;;;;5072786;28;20090;-61
2021/06/21 09:10:50;;;;;;;10.32;3.80;;;;;;;;;;5072591;28;20036;-61
2021/06/21 09:13:16;;;;;;;10.25;2.70;;;;;;;;;;5072868;28;20025;-61
2021/06/21 09:15:48;;;;;;;11.35;3.65;;;;;;;;;;5072745;28;20021;-61
2021/06/21 09:18:27;;;;;;;8.07;2.90;;;;;;;;;;5072382;28;20031;-61
2021/06/21 09:21:11;;;;;;;6.50;2.85;;;;;;;;;;5070357;28;20052;-61
2021/06/21 09:23:36;;;;;;;5.85;2.70;;;;;;;;;;5070782;28;20029;-61
2021/06/21 09:26:18;;;;;;;7.82;3.30;;;;;;;;;;5071278;28;20025;-61
2021/06/21 09:28:44;;;;;;;9.38;3.15;;;;;;;;;;5071774;28;20036;-61
2021/06/21 09:31:10;;;;;;;8.20;3.53;;;;;;;;;;5071430;28;20025;-61
2021/06/21 09:33:36;;;;;;;12.20;3.95;;;;;;;;;;5070584;28;20098;-61
2021/06/21 09:36:02;;;;;;;5.18;3.47;;;;;;;;;;5073959;28;20020;-61
2021/06/21 09:38:27;;;;;;;13.38;3.35;;;;;;;;;;5075976;28;20032;-61
2021/06/21 09:40:55;;;;;;;7.80;3.60;;;;;;;;;;5075904;28;20017;-60
2021/06/21 09:43:28;;;;;;;7.18;3.03;;;;;;;;;;5074717;28;20119;-60
2021/06/21 09:46:04;;;;;;;9.52;2.90;;;;;;;;;;5075715;28;20028;-60
2021/06/21 09:48:31;;;;;;;7.53;2.63;;;;;;;;;;5076180;28;20025;-60
2021/06/21 09:50:56;;;;;;;6.85;3.63;;;;;;;;;;5076087;28;20048;-61
2021/06/21 09:53:28;;;;;;;3.83;2.58;;;;;;;;;;5075457;28;20063;-62
2021/06/21 09:55:58;;;;;;;10.80;3.60;;;;;;;;;;5058301;28;20123;-61
2021/06/21 09:58:24;;;;;;;7.03;2.60;;;;;;;;;;5075972;28;20016;-62
2021/06/21 10:00:50;;;;;;;3.92;2.80;;;;;;;;;;5075703;28;20029;-61
2021/06/21 10:03:19;;;;;;;7.47;3.20;;;;;;;;;;5075866;28;20107;-61
2021/06/21 10:05:46;;;;;;;8.63;3.03;;;;;;;;;;5075468;28;20093;-62
2021/06/21 10:08:14;;;;;;;7.90;2.88;;;;;;;;;;5075443;28;20067;-61
2021/06/21 10:10:40;;;;;;;7.55;2.83;;;;;;;;;;5075170;28;20032;-61
2021/06/21 10:13:06;;;;;;;7.18;3.30;;;;;;;;;;5075467;28;20028;-61
2021/06/21 10:15:32;;;;;;;5.25;2.78;;;;;;;;;;5075452;28;20028;-61
2021/06/21 10:17:58;;;;;;;7.22;2.70;;;;;;;;;;5075205;28;20020;-62
2021/06/21 10:20:23;;;;;;;5.25;2.40;;;;;;;;;;5075164;28;20032;-62
2021/06/21 10:22:49;;;;;;;6.72;3.22;;;;;;;;;;5075421;28;20027;-62
2021/06/21 10:25:14;;;;;;;7.90;2.63;;;;;;;;;;5075267;28;20397;-61
2021/06/21 10:27:42;;;;;;;6.03;2.90;;;;;;;;;;5075194;28;20093;-61
2021/06/21 10:30:09;;;;;;;2.20;2.03;;;;;;;;;;5073686;28;20033;-61
2021/06/21 10:32:34;;;;;;;5.65;2.88;;;;;;;;;;5075224;28;20078;-61
2021/06/21 10:35:01;;;;;;;3.67;2.80;;;;;;;;;;5074927;28;20032;-62
2021/06/21 10:37:27;;;;;;;6.55;2.47;;;;;;;;;;5074998;28;20525;-62
2021/06/21 10:40:04;;;;;;;6.68;2.60;;;;;;;;;;5075084;28;20393;-63
2021/06/21 10:42:37;;;;;;;5.65;3.13;;;;;;;;;;5074845;28;20052;-62
2021/06/21 10:45:04;;;;;;;3.20;2.40;;;;;;;;;;5074952;28;20066;-61
2021/06/21 10:47:32;;;;;;;6.75;2.70;;;;;;;;;;5074205;28;20059;-63
2021/06/21 10:49:58;;;;;;;16.05;3.35;;;;;;;;;;5074916;28;20036;-62
2021/06/21 10:52:33;;;;;;;6.85;4.60;;;;;;;;;;5074311;28;20057;-62
2021/06/21 10:55:18;;;;;;;7.45;2.50;;;;;;;;;;5074016;28;20489;-62
2021/06/21 10:57:43;;;;;;;9.48;3.90;;;;;;;;;;5071327;28;20043;-62
2021/06/21 11:00:13;;;;;;;10.10;6.63;;;;;;;;;;5073912;28;20095;-62
2021/06/21 11:02:39;;;;;;;3.08;2.30;;;;;;;;;;5073950;28;20021;-62
2021/06/21 11:05:04;;;;;;;9.82;3.85;;;;;;;;;;5072227;28;20097;-62
2021/06/21 11:07:30;;;;;;;6.60;2.28;;;;;;;;;;5073759;28;20028;-62
2021/06/21 11:09:57;;;;;;;5.03;2.60;;;;;;;;;;5073583;28;20372;-62
2021/06/21 11:12:27;;;;;;;5.93;2.90;;;;;;;;;;5070949;28;20463;-62
2021/06/21 11:15:08;;;;;;;5.30;2.35;;;;;;;;;;5074522;28;20443;-62
2021/06/21 11:17:45;;;;;;;4.38;2.50;;;;;;;;;;5074014;28;20093;-62
2021/06/21 11:20:26;;;;;;;5.75;2.35;;;;;;;;;;5074124;28;20032;-62
2021/06/21 11:22:54;;;;;;;4.97;2.30;;;;;;;;;;5073862;28;20024;-62
2021/06/21 11:25:21;;;;;;;5.70;2.45;;;;;;;;;;5074111;28;20020;-62
2021/06/21 11:27:46;;;;;;;8.60;2.40;;;;;;;;;;5074115;28;20119;-62
2021/06/21 11:30:21;;;;;;;5.28;2.35;;;;;;;;;;5073722;28;20472;-62
2021/06/21 11:32:57;;;;;;;6.10;2.15;;;;;;;;;;5073972;28;20029;-62
2021/06/21 11:35:41;;;;;;;8.50;2.25;;;;;;;;;;5073805;28;20020;-62
2021/06/21 11:38:39;;;;;;;5.15;2.47;;;;;;;;;;5072985;28;20022;-60
2021/06/21 11:41:18;;;;;;;11.07;2.38;;;;;;;;;;5038804;28;20048;-61
2021/06/21 11:43:50;;;;;;;7.60;3.17;;;;;;;;;;5064165;28;20450;-61
2021/06/21 11:46:34;;;;;;;6.45;2.42;;;;;;;;;;5068920;28;20107;-61
2021/06/21 11:49:04;;;;;;;5.80;2.03;;;;;;;;;;5073587;28;20482;-60
2021/06/21 11:51:29;;;;;;;5.87;2.70;;;;;;;;;;5072468;28;20467;-60
2021/06/21 11:53:55;;;;;;;12.52;4.32;;;;;;;;;;5072911;28;20020;-60
2021/06/21 11:56:24;;;;;;;16.92;6.70;;;;;;;;;;5073047;28;20070;-63
2021/06/21 11:58:51;;;;;;;8.95;3.58;;;;;;;;;;5071432;28;20453;-62
2021/06/21 12:01:17;;;;;;;8.52;2.47;;;;;;;;;;5073544;28;20028;-62
2021/06/21 12:03:44;;;;;;;4.72;2.85;;;;;;;;;;5073198;28;20024;-63
2021/06/21 12:06:14;;;;;;;5.97;2.10;;;;;;;;;;5073668;28;20025;-60
2021/06/21 12:08:42;;;;;;;5.68;2.33;;;;;;;;;;5073185;28;20016;-61
2021/06/21 12:11:24;;;;;;;3.90;2.40;;;;;;;;;;5072005;28;20051;-62
2021/06/21 12:13:57;;;;;;;6.90;2.35;;;;;;;;;;5073549;28;20048;-62
2021/06/21 12:16:23;;;;;;;5.22;3.08;;;;;;;;;;5073355;28;20039;-66
2021/06/21 12:18:51;;;;;;;6.07;2.22;;;;;;;;;;5073349;28;20020;-66
2021/06/21 12:21:33;;;;;;;5.22;2.20;;;;;;;;;;5073312;28;20025;-67
2021/06/21 12:24:19;;;;;;;7.22;2.97;;;;;;;;;;5073512;28;20111;-66
2021/06/21 12:26:45;;;;;;;6.18;2.28;;;;;;;;;;5072999;28;20135;-66
2021/06/21 12:29:18;;;;;;;8.07;2.45;;;;;;;;;;5073277;28;20020;-66
2021/06/21 12:31:51;;;;;;;4.40;1.80;;;;;;;;;;5073175;28;20051;-66
2021/06/21 12:34:17;;;;;;;7.10;2.83;;;;;;;;;;5073125;28;20119;-66
2021/06/21 12:36:42;;;;;;;8.98;2.08;;;;;;;;;;5072635;28;20099;-66
2021/06/21 12:39:08;;;;;;;6.28;2.15;;;;;;;;;;5073476;28;20016;-65
2021/06/21 12:41:35;;;;;;;6.43;2.30;;;;;;;;;;5073052;28;20028;-65
2021/06/21 12:44:03;;;;;;;6.07;2.10;;;;;;;;;;5071711;28;20032;-65
2021/06/21 12:46:30;;;;;;;6.47;1.92;;;;;;;;;;5071668;28;20021;-65
2021/06/21 12:48:58;;;;;;;5.40;2.00;;;;;;;;;;5072848;28;20025;-65
2021/06/21 12:51:23;;;;;;;6.18;1.90;;;;;;;;;;5071631;28;20027;-65
2021/06/21 12:53:50;;;;;;;9.30;2.70;;;;;;;;;;5073018;28;20024;-66
2021/06/21 12:56:20;;;;;;;6.43;2.50;;;;;;;;;;5073314;28;20107;-65
2021/06/21 12:58:46;;;;;;;5.55;2.72;;;;;;;;;;5071596;28;20035;-66
2021/06/21 13:01:26;;;;;;;5.43;2.20;;;;;;;;;;5072929;28;20025;-65
2021/06/21 13:03:52;;;;;;;5.93;2.65;;;;;;;;;;5072607;28;20060;-65
2021/06/21 13:06:47;;;;;;;8.25;2.40;;;;;;;;;;5073049;28;20167;-65
2021/06/21 13:09:14;;;;;;;3.92;1.83;;;;;;;;;;5059165;28;20055;-65
2021/06/21 13:11:54;;;;;;;3.33;2.05;;;;;;;;;;5076770;28;20025;-65
2021/06/21 13:14:21;;;;;;;4.90;1.80;;;;;;;;;;5076703;28;20093;-65
2021/06/21 13:16:46;;;;;;;4.72;2.20;;;;;;;;;;5076737;28;20023;-66
2021/06/21 13:19:18;;;;;;;7.97;2.28;;;;;;;;;;5076513;28;20021;-66
2021/06/21 13:21:50;;;;;;;7.00;2.13;;;;;;;;;;5076534;28;20027;-65
2021/06/21 13:24:36;;;;;;;6.15;2.67;;;;;;;;;;5076372;28;20029;-65
2021/06/21 13:27:18;;;;;;;6.50;2.33;;;;;;;;;;5075197;28;20032;-66
2021/06/21 13:29:43;;;;;;;6.93;2.67;;;;;;;;;;5076284;28;20489;-66
2021/06/21 13:32:18;;;;;;;5.22;2.10;;;;;;;;;;5075822;28;20020;-66
2021/06/21 13:34:45;;;;;;;6.53;2.47;;;;;;;;;;5076315;28;20454;-65
2021/06/21 13:37:12;;;;;;;3.38;2.65;;;;;;;;;;5075957;28;20462;-65
2021/06/21 13:39:49;;;;;;;8.70;2.33;;;;;;;;;;5076316;28;20459;-66
2021/06/21 13:42:15;;;;;;;9.20;2.50;;;;;;;;;;5076241;28;20029;-65
2021/06/21 13:44:50;;;;;;;7.68;2.20;;;;;;;;;;5076186;28;20478;-66
2021/06/21 13:47:30;;;;;;;7.72;2.55;;;;;;;;;;5076222;28;20036;-65
2021/06/21 13:49:59;;;;;;;2.85;1.98;;;;;;;;;;5075997;28;20494;-66
2021/06/21 13:52:35;;;;;;;8.38;2.45;;;;;;;;;;5076127;28;20028;-65
2021/06/21 13:55:01;;;;;;;5.55;2.25;;;;;;;;;;5076138;28;20035;-65
2021/06/21 13:57:34;;;;;;;8.05;2.25;;;;;;;;;;5075893;28;20017;-66
2021/06/21 14:00:03;;;;;;;4.15;2.13;;;;;;;;;;5074346;28;20024;-66
2021/06/21 14:02:40;;;;;;;5.80;2.13;;;;;;;;;;5075532;28;20030;-66
2021/06/21 14:05:07;;;;;;;8.77;2.38;;;;;;;;;;5074034;28;20127;-53
2021/06/21 14:07:33;;;;;;;6.68;2.50;;;;;;;;;;5075846;28;20372;-69
2021/06/21 14:09:59;;;;;;;5.63;2.53;;;;;;;;;;5075599;28;20131;-69
2021/06/21 14:12:25;;;;;;;4.93;2.00;;;;;;;;;;5075575;28;20487;-69
2021/06/21 14:14:51;;;;;;;4.93;2.05;;;;;;;;;;5075731;28;20029;-69
2021/06/21 14:17:17;;;;;;;8.38;2.00;;;;;;;;;;5075539;28;20107;-65
2021/06/21 14:19:43;;;;;;;5.32;2.03;;;;;;;;;;5074577;28;20056;-67
2021/06/21 14:22:09;;;;;;;9.68;2.10;;;;;;;;;;5065890;28;20470;-61
2021/06/21 14:24:34;;;;;;;6.13;2.00;;;;;;;;;;5071848;28;20044;-61
2021/06/21 14:27:00;;;;;;;4.80;2.00;;;;;;;;;;5071823;28;20028;-62
2021/06/21 14:29:25;;;;;;;4.95;2.00;;;;;;;;;;5071594;28;20533;-61
2021/06/21 14:31:51;;;;;;;4.10;2.10;;;;;;;;;;5071676;28;20051;-61
2021/06/21 14:34:16;;;;;;;2.95;1.90;;;;;;;;;;5072011;28;20387;-62
2021/06/21 14:36:42;;;;;;;3.33;1.63;;;;;;;;;;5075322;28;20016;-61
2021/06/21 14:39:08;;;;;;;3.08;1.83;;;;;;;;;;5073553;28;20024;-61
2021/06/21 14:41:33;;;;;;;13.32;8.18;;;;;;;;;;5075006;28;20016;-60
2021/06/21 14:44:01;;;;;;;15.38;10.35;;;;;;;;;;5075090;28;20035;-60
2021/06/21 14:46:26;;;;;;;3.45;2.22;;;;;;;;;;5074825;28;20543;-60
2021/06/21 14:48:54;;;;;;;3.63;1.95;;;;;;;;;;5074966;28;20111;-60